Time;durP1;ratioP1;P1;durP2;ratioP2;P2;SDS_P1;SDS_P2;PMS_P1;PMS_P2;Temp;Humidity;BMP_temperature;BMP_pressure;BME280_temperature;BME280_humidity;BME280_pressure;Samples;Min_cycle;Max_cycle;Signal;HPM_P1;HPM_P2
2023/04/01 00:00:23;;;;;;;31.03;10.53;;;10.50;99.90;;;;;;4993508;28;20998;-62
2023/04/01 00:02:50;;;;;;;20.47;7.23;;;10.50;99.90;;;;;;4989381;28;20473;-61
2023/04/01 00:05:17;;;;;;;24.63;8.50;;;10.50;99.90;;;;;;4983472;28;20472;-61
2023/04/01 00:07:44;;;;;;;14.60;5.33;;;10.50;99.90;;;;;;4996325;28;20497;-62
2023/04/01 00:10:13;;;;;;;20.20;7.20;;;10.50;99.90;;;;;;4990601;28;20998;-62
2023/04/01 00:12:41;;;;;;;17.97;6.30;;;10.50;99.90;;;;;;4984652;28;20489;-62
2023/04/01 00:15:11;;;;;;;10.60;4.17;;;10.50;99.90;;;;;;4982640;28;20876;-62
2023/04/01 00:17:38;;;;;;;16.07;6.57;;;10.40;99.90;;;;;;4984543;28;20806;-62
2023/04/01 00:20:07;;;;;;;19.00;6.50;;;10.50;99.90;;;;;;4991587;28;20485;-62
2023/04/01 00:22:34;;;;;;;14.37;6.17;;;10.30;99.90;;;;;;4995503;28;20609;-63
2023/04/01 00:25:00;;;;;;;12.30;5.00;;;10.30;99.90;;;;;;4989488;28;20482;-62
2023/04/01 00:27:27;;;;;;;17.20;6.87;;;10.30;99.90;;;;;;4963151;28;20497;-62
2023/04/01 00:29:55;;;;;;;18.03;6.30;;;10.20;99.90;;;;;;5005811;28;20988;-62
2023/04/01 00:32:22;;;;;;;25.00;8.83;;;10.30;99.90;;;;;;5031791;28;20496;-62
2023/04/01 00:34:52;;;;;;;23.43;8.10;;;10.30;99.90;;;;;;5022946;28;20534;-62
2023/04/01 00:37:19;;;;;;;25.57;8.20;;;10.30;99.90;;;;;;5016240;28;20473;-62
2023/04/01 00:39:45;;;;;;;27.60;10.13;;;10.40;99.90;;;;;;5012563;28;20849;-62
2023/04/01 00:42:13;;;;;;;23.53;7.50;;;10.30;99.90;;;;;;5019643;28;20489;-61
2023/04/01 00:44:41;;;;;;;18.20;5.27;;;10.20;99.90;;;;;;5015213;28;21009;-61
2023/04/01 00:47:09;;;;;;;11.30;5.33;;;10.30;99.90;;;;;;4987787;28;20490;-62
2023/04/01 00:49:41;;;;;;;20.70;6.10;;;10.30;99.90;;;;;;4975263;28;20474;-62
2023/04/01 00:52:11;;;;;;;15.53;3.90;;;10.30;99.90;;;;;;4968543;28;20504;-62
2023/04/01 00:54:41;;;;;;;21.83;8.27;;;10.30;99.90;;;;;;4972307;28;20507;-62
2023/04/01 00:57:12;;;;;;;12.83;4.37;;;10.40;99.90;;;;;;4980240;28;20483;-62
2023/04/01 00:59:44;;;;;;;27.43;6.67;;;10.40;99.90;;;;;;4988373;28;20490;-62
2023/04/01 01:02:14;;;;;;;14.17;6.00;;;10.50;99.90;;;;;;4986573;28;20563;-62
2023/04/01 01:04:41;;;;;;;16.93;5.57;;;10.50;99.90;;;;;;4993633;28;20719;-62
2023/04/01 01:07:17;;;;;;;17.13;6.40;;;10.50;99.90;;;;;;4972377;28;20845;-62
2023/04/01 01:09:51;;;;;;;25.83;7.67;;;10.50;99.90;;;;;;4995487;28;21011;-62
2023/04/01 01:12:22;;;;;;;21.17;8.30;;;10.50;99.90;;;;;;5026302;28;20463;-61
2023/04/01 01:14:56;;;;;;;16.53;6.87;;;10.50;99.90;;;;;;5020916;28;20471;-62
2023/04/01 01:17:38;;;;;;;27.03;9.10;;;10.40;99.90;;;;;;5001084;28;21169;-63
2023/04/01 01:20:41;;;;;;;15.20;6.27;;;10.40;99.90;;;;;;5017351;28;20853;-62
2023/04/01 01:23:33;;;;;;;14.17;4.83;;;10.50;99.90;;;;;;4995088;28;20531;-62
2023/04/01 01:26:12;;;;;;;12.33;5.33;;;10.50;99.90;;;;;;5019432;28;20484;-62
2023/04/01 01:28:50;;;;;;;11.47;5.30;;;10.40;99.90;;;;;;5004675;28;20851;-62
2023/04/01 01:31:23;;;;;;;24.67;9.70;;;10.50;99.90;;;;;;5026770;28;20756;-62
2023/04/01 01:34:01;;;;;;;17.10;7.47;;;10.20;99.90;;;;;;5023440;28;20488;-62
2023/04/01 01:36:34;;;;;;;9.70;5.13;;;10.30;99.90;;;;;;5015742;28;20474;-62
2023/04/01 01:39:02;;;;;;;13.50;6.53;;;10.20;99.90;;;;;;4989528;28;21017;-62
2023/04/01 01:41:30;;;;;;;13.87;5.73;;;10.20;99.90;;;;;;4990190;28;20497;-62
2023/04/01 01:44:00;;;;;;;12.37;5.80;;;11.60;99.90;;;;;;4964857;28;20484;-62
2023/04/01 01:46:30;;;;;;;19.90;8.33;;;10.10;99.90;;;;;;4983125;28;20880;-62
2023/04/01 01:48:58;;;;;;;54.17;19.93;;;10.10;99.90;;;;;;4963212;28;20500;-62
2023/04/01 01:51:27;;;;;;;25.27;10.13;;;10.20;99.90;;;;;;5008474;28;20520;-62
2023/04/01 01:53:55;;;;;;;12.80;5.30;;;10.00;99.90;;;;;;5000253;28;20480;-62
2023/04/01 01:56:27;;;;;;;32.83;10.30;;;10.10;99.90;;;;;;5001563;28;20481;-62
2023/04/01 01:58:58;;;;;;;16.00;6.90;;;10.10;99.90;;;;;;4982949;28;20490;-62
2023/04/01 02:01:27;;;;;;;29.80;7.37;;;10.00;99.90;;;;;;4984568;28;20477;-63
2023/04/01 02:03:55;;;;;;;25.60;10.67;;;10.00;99.90;;;;;;4993784;28;21479;-62
2023/04/01 02:06:24;;;;;;;24.53;9.13;;;9.90;99.90;;;;;;4994405;28;20481;-63
2023/04/01 02:08:55;;;;;;;12.00;6.03;;;9.90;99.90;;;;;;4987671;28;20493;-62
2023/04/01 02:11:28;;;;;;;29.50;12.60;;;9.90;99.90;;;;;;4977190;28;20496;-62
2023/04/01 02:13:58;;;;;;;17.87;5.60;;;9.80;99.90;;;;;;4983067;28;20478;-63
2023/04/01 02:16:30;;;;;;;20.30;9.77;;;9.70;99.90;;;;;;4979337;28;20490;-62
2023/04/01 02:18:58;;;;;;;20.40;7.37;;;;;;;;;;4997443;28;20501;-62
2023/04/01 02:21:28;;;;;;;21.73;8.73;;;9.60;99.90;;;;;;5005821;28;20482;-62
2023/04/01 02:23:58;;;;;;;13.37;5.57;;;9.70;99.90;;;;;;4984147;28;20504;-62
2023/04/01 02:26:27;;;;;;;26.10;7.83;;;9.70;99.90;;;;;;4992083;28;20493;-62
2023/04/01 02:28:55;;;;;;;11.23;5.67;;;9.80;99.90;;;;;;4986341;28;20881;-62
2023/04/01 02:31:23;;;;;;;25.23;9.73;;;9.90;99.90;;;;;;4981040;28;20477;-61
2023/04/01 02:33:50;;;;;;;13.40;4.47;;;9.90;99.90;;;;;;4983039;28;20492;-62
2023/04/01 02:36:18;;;;;;;22.20;9.70;;;9.80;99.90;;;;;;4987869;28;20895;-62
2023/04/01 02:38:47;;;;;;;17.23;6.80;;;9.80;99.90;;;;;;4990000;28;20497;-62
2023/04/01 02:41:14;;;;;;;12.93;4.03;;;9.80;99.90;;;;;;5011018;28;20500;-62
2023/04/01 02:43:42;;;;;;;16.77;5.33;;;9.80;99.90;;;;;;4992648;28;20560;-61
2023/04/01 02:46:09;;;;;;;12.43;5.20;;;9.80;99.90;;;;;;5004932;28;20484;-62
2023/04/01 02:48:35;;;;;;;13.93;4.13;;;9.80;99.90;;;;;;4999620;28;20932;-62
2023/04/01 02:51:02;;;;;;;9.60;5.00;;;9.90;99.90;;;;;;4994139;28;20470;-63
2023/04/01 02:53:29;;;;;;;14.90;6.00;;;10.00;99.90;;;;;;4992183;28;20505;-62
2023/04/01 02:55:55;;;;;;;14.47;4.80;;;9.90;99.90;;;;;;4992444;28;20606;-62
2023/04/01 02:58:22;;;;;;;14.97;6.30;;;9.90;99.90;;;;;;4993054;28;20486;-62
2023/04/01 03:00:50;;;;;;;16.47;6.57;;;9.90;99.90;;;;;;4986254;28;20837;-62
2023/04/01 03:03:17;;;;;;;20.63;6.83;;;9.90;99.90;;;;;;4982594;28;21154;-63
2023/04/01 03:05:44;;;;;;;12.10;5.60;;;9.70;99.90;;;;;;4993477;28;20493;-62
2023/04/01 03:08:11;;;;;;;8.37;4.40;;;9.90;99.90;;;;;;4996400;28;20484;-63
2023/04/01 03:10:38;;;;;;;18.13;5.17;;;9.80;99.90;;;;;;4995256;28;20482;-62
2023/04/01 03:13:06;;;;;;;10.30;3.83;;;9.70;99.90;;;;;;4992327;28;20480;-62
2023/04/01 03:15:32;;;;;;;16.70;6.63;;;9.80;99.90;;;;;;4994608;28;20809;-63
2023/04/01 03:18:00;;;;;;;20.80;5.97;;;9.70;99.90;;;;;;5015487;28;20958;-63
2023/04/01 03:20:27;;;;;;;21.27;8.47;;;9.80;99.90;;;;;;5020755;28;20480;-62
2023/04/01 03:22:54;;;;;;;11.93;6.30;;;9.60;99.90;;;;;;5007026;28;21180;-63
2023/04/01 03:25:21;;;;;;;19.40;6.60;;;9.70;99.90;;;;;;4999291;28;20489;-62
2023/04/01 03:27:47;;;;;;;11.93;5.30;;;9.70;99.90;;;;;;5024998;28;20479;-63
2023/04/01 03:30:14;;;;;;;22.50;7.40;;;9.70;99.90;;;;;;5015241;28;20484;-62
2023/04/01 03:32:41;;;;;;;16.90;6.23;;;9.70;99.90;;;;;;4991882;28;20679;-62
2023/04/01 03:35:10;;;;;;;19.67;5.33;;;9.80;99.90;;;;;;4985742;28;20499;-62
2023/04/01 03:37:37;;;;;;;18.23;8.07;;;9.70;99.90;;;;;;5012106;28;20500;-62
2023/04/01 03:40:04;;;;;;;15.83;5.17;;;9.60;99.90;;;;;;5019120;28;21087;-62
2023/04/01 03:42:32;;;;;;;8.63;4.80;;;9.60;99.90;;;;;;5014547;28;20469;-61
2023/04/01 03:44:58;;;;;;;21.53;6.00;;;9.80;99.90;;;;;;5007381;28;21008;-61
2023/04/01 03:47:25;;;;;;;21.00;7.23;;;9.70;99.90;;;;;;5011220;28;20488;-62
2023/04/01 03:49:52;;;;;;;19.07;7.30;;;9.60;99.90;;;;;;5008968;28;20757;-63
2023/04/01 03:52:20;;;;;;;19.67;9.80;;;9.60;99.90;;;;;;5010112;28;20488;-62
2023/04/01 03:54:47;;;;;;;17.63;6.03;;;9.70;99.90;;;;;;5008709;28;20480;-62
2023/04/01 03:57:14;;;;;;;22.10;7.97;;;9.60;99.90;;;;;;4998627;28;20496;-63
2023/04/01 03:59:40;;;;;;;14.90;5.20;;;9.70;99.90;;;;;;5010016;28;20501;-62
2023/04/01 04:02:07;;;;;;;14.33;5.27;;;9.50;99.90;;;;;;4991865;28;20485;-62
2023/04/01 04:04:35;;;;;;;12.17;5.80;;;9.50;99.90;;;;;;5010486;28;20496;-61
2023/04/01 04:07:02;;;;;;;14.77;6.33;;;9.60;99.90;;;;;;5014211;28;20476;-63
2023/04/01 04:09:31;;;;;;;20.83;4.80;;;9.50;99.90;;;;;;5027077;28;20488;-62
2023/04/01 04:11:57;;;;;;;16.67;7.93;;;9.50;99.90;;;;;;5004753;28;20474;-62
2023/04/01 04:14:24;;;;;;;25.67;10.23;;;9.60;99.90;;;;;;5007277;28;20484;-62
2023/04/01 04:16:51;;;;;;;22.60;6.77;;;9.60;99.90;;;;;;5010011;28;20485;-62
2023/04/01 04:19:18;;;;;;;17.07;8.40;;;9.70;99.90;;;;;;5005798;28;20499;-62
2023/04/01 04:21:45;;;;;;;10.90;5.40;;;9.60;99.90;;;;;;5027496;28;20512;-62
2023/04/01 04:24:11;;;;;;;26.07;8.40;;;9.50;99.90;;;;;;5009335;28;20500;-62
2023/04/01 04:26:39;;;;;;;10.53;5.70;;;9.60;99.90;;;;;;5011665;28;20508;-61
2023/04/01 04:29:06;;;;;;;10.07;4.67;;;9.70;99.90;;;;;;5012719;28;20477;-62
2023/04/01 04:31:33;;;;;;;19.83;6.50;;;9.60;99.90;;;;;;4989644;28;21112;-62
2023/04/01 04:34:00;;;;;;;20.10;6.20;;;9.60;99.90;;;;;;4998528;28;20500;-62
2023/04/01 04:36:27;;;;;;;19.80;6.90;;;9.60;99.90;;;;;;4988576;28;20527;-62
2023/04/01 04:38:53;;;;;;;15.03;4.87;;;9.50;99.90;;;;;;5013098;28;20928;-62
2023/04/01 04:41:21;;;;;;;23.50;9.40;;;9.50;99.90;;;;;;4983671;28;20485;-62
2023/04/01 04:43:52;;;;;;;16.83;7.47;;;;;;;;;;4986055;28;20509;-63
2023/04/01 04:46:20;;;;;;;25.37;9.00;;;9.40;99.90;;;;;;4975778;28;21251;-62
2023/04/01 04:48:47;;;;;;;12.10;6.13;;;9.60;99.90;;;;;;4991453;28;20493;-62
2023/04/01 04:51:15;;;;;;;17.27;6.63;;;9.50;99.90;;;;;;5001264;28;20871;-62
2023/04/01 04:53:42;;;;;;;12.10;5.50;;;9.60;99.90;;;;;;4997314;28;20633;-61
2023/04/01 04:56:09;;;;;;;11.37;5.70;;;9.50;99.90;;;;;;4990620;28;20491;-62
2023/04/01 04:58:36;;;;;;;10.70;4.90;;;9.50;99.90;;;;;;5008761;28;21164;-62
2023/04/01 05:01:09;;;;;;;7.83;4.90;;;9.60;99.90;;;;;;4997084;28;20820;-62
2023/04/01 05:03:35;;;;;;;11.37;5.27;;;9.50;99.90;;;;;;4983884;28;20493;-62
2023/04/01 05:06:02;;;;;;;10.33;4.60;;;9.60;99.90;;;;;;4965843;28;20549;-62
2023/04/01 05:08:29;;;;;;;14.00;5.20;;;9.60;99.90;;;;;;4972870;28;20719;-62
2023/04/01 05:10:56;;;;;;;16.07;6.30;;;9.50;99.90;;;;;;5008221;28;20489;-62
2023/04/01 05:13:23;;;;;;;28.40;9.20;;;9.40;99.90;;;;;;5004182;28;20486;-63
2023/04/01 05:15:49;;;;;;;16.03;6.30;;;9.50;99.90;;;;;;4997536;28;20580;-62
2023/04/01 05:18:18;;;;;;;25.90;10.47;;;9.50;99.90;;;;;;5006414;28;20489;-62
2023/04/01 05:20:48;;;;;;;12.67;5.77;;;9.50;99.90;;;;;;5003192;28;20610;-62
2023/04/01 05:23:15;;;;;;;27.10;10.97;;;9.40;99.90;;;;;;5005152;28;20509;-62
2023/04/01 05:25:42;;;;;;;15.30;5.80;;;9.20;99.90;;;;;;4989650;28;20484;-62
2023/04/01 05:28:09;;;;;;;16.80;4.50;;;9.50;99.90;;;;;;5011971;28;20841;-62
2023/04/01 05:30:36;;;;;;;11.67;5.07;;;9.40;99.90;;;;;;4996655;28;20490;-62
2023/04/01 05:33:03;;;;;;;12.03;5.13;;;9.50;99.90;;;;;;4977751;28;20493;-62
2023/04/01 05:35:31;;;;;;;16.87;4.27;;;9.50;99.90;;;;;;4978769;28;20492;-61
2023/04/01 05:37:57;;;;;;;11.00;5.07;;;9.50;99.90;;;;;;4980564;28;20492;-63
2023/04/01 05:40:24;;;;;;;19.07;8.40;;;9.50;99.90;;;;;;4990915;28;20497;-61
2023/04/01 05:42:51;;;;;;;15.40;6.10;;;9.50;99.90;;;;;;4997429;28;20712;-62
2023/04/01 05:45:18;;;;;;;23.97;9.60;;;9.50;99.90;;;;;;4973248;28;20505;-63
2023/04/01 05:47:44;;;;;;;14.37;6.00;;;9.50;99.90;;;;;;4994178;28;20484;-62
2023/04/01 05:50:12;;;;;;;13.13;4.27;;;9.40;99.90;;;;;;4990258;28;20481;-62
2023/04/01 05:52:40;;;;;;;19.87;5.00;;;9.40;99.90;;;;;;4993062;28;20493;-62
2023/04/01 05:55:07;;;;;;;9.87;4.30;;;9.30;99.90;;;;;;4997519;28;20497;-62
2023/04/01 05:57:34;;;;;;;11.33;5.20;;;9.40;99.90;;;;;;4999952;28;20479;-62
2023/04/01 06:00:00;;;;;;;12.37;4.50;;;9.70;99.90;;;;;;4987139;28;20509;-62
2023/04/01 06:02:28;;;;;;;12.93;6.23;;;9.40;99.90;;;;;;4988735;28;21042;-62
2023/04/01 06:05:02;;;;;;;20.87;6.93;;;;;;;;;;4981630;28;20485;-62
2023/04/01 06:07:29;;;;;;;15.50;7.13;;;9.40;99.90;;;;;;5003135;28;20494;-63
2023/04/01 06:09:58;;;;;;;9.07;4.90;;;;;;;;;;4967916;28;20489;-62
2023/04/01 06:12:42;;;;;;;28.07;9.27;;;9.40;99.90;;;;;;4983658;28;20492;-62
2023/04/01 06:15:24;;;;;;;16.20;5.00;;;9.50;99.90;;;;;;4998862;28;20504;-63
2023/04/01 06:18:12;;;;;;;20.87;6.90;;;9.50;99.90;;;;;;5008792;28;20517;-62
2023/04/01 06:20:48;;;;;;;18.00;4.70;;;9.50;99.90;;;;;;4994303;28;20474;-62
2023/04/01 06:23:34;;;;;;;18.30;8.53;;;9.50;99.90;;;;;;4980881;28;20482;-62
2023/04/01 06:26:20;;;;;;;11.23;4.07;;;9.50;99.90;;;;;;5024453;28;20481;-62
2023/04/01 06:29:17;;;;;;;15.23;5.90;;;9.50;99.90;;;;;;5016129;28;20491;-62
2023/04/01 06:32:02;;;;;;;13.20;6.03;;;9.60;99.90;;;;;;4995713;28;20536;-61
2023/04/01 06:34:45;;;;;;;16.97;7.40;;;9.50;99.90;;;;;;4997617;28;20477;-62
2023/04/01 06:37:30;;;;;;;19.10;7.30;;;9.60;99.90;;;;;;5015173;28;20472;-62
2023/04/01 06:40:20;;;;;;;15.47;6.07;;;9.60;99.90;;;;;;5007150;28;20480;-62
2023/04/01 06:43:00;;;;;;;22.13;5.50;;;9.60;99.90;;;;;;4997808;28;20567;-61
2023/04/01 06:45:35;;;;;;;13.07;6.30;;;9.50;99.90;;;;;;4985693;28;20484;-62
2023/04/01 06:48:20;;;;;;;14.03;4.30;;;9.50;99.90;;;;;;5003171;28;20581;-62
2023/04/01 06:50:57;;;;;;;18.20;7.90;;;9.50;99.90;;;;;;4994354;28;20526;-62
2023/04/01 06:53:30;;;;;;;17.80;7.73;;;9.60;99.90;;;;;;5004033;28;25279;-62
2023/04/01 06:56:00;;;;;;;16.07;6.33;;;9.50;99.90;;;;;;4996649;28;20567;-62
2023/04/01 06:58:38;;;;;;;21.23;7.43;;;9.50;99.90;;;;;;5014257;28;20920;-62
2023/04/01 07:01:11;;;;;;;9.17;3.83;;;9.50;99.90;;;;;;4984331;28;20501;-62
2023/04/01 07:03:42;;;;;;;16.70;5.07;;;9.50;99.90;;;;;;4987773;28;20818;-62
2023/04/01 07:06:15;;;;;;;16.57;6.97;;;9.60;99.90;;;;;;4995462;28;20482;-62
2023/04/01 07:08:44;;;;;;;10.80;5.20;;;9.60;99.90;;;;;;5000906;28;20476;-62
2023/04/01 07:11:18;;;;;;;20.53;7.50;;;9.60;99.90;;;;;;4991192;28;20486;-62
2023/04/01 07:13:50;;;;;;;15.87;6.60;;;9.60;99.90;;;;;;5014985;28;20473;-62
2023/04/01 07:16:20;;;;;;;26.37;7.70;;;9.70;99.90;;;;;;5007592;28;20490;-62
2023/04/01 07:18:51;;;;;;;14.77;6.73;;;9.70;99.90;;;;;;5007100;28;20479;-62
2023/04/01 07:21:26;;;;;;;20.53;7.53;;;9.70;99.90;;;;;;4961936;28;20516;-62
2023/04/01 07:23:57;;;;;;;13.70;6.00;;;9.70;99.90;;;;;;4987173;28;20481;-63
2023/04/01 07:26:26;;;;;;;19.23;7.90;;;9.70;99.90;;;;;;4989359;28;20495;-62
2023/04/01 07:28:54;;;;;;;14.07;4.63;;;9.80;99.90;;;;;;5013756;28;20826;-62
2023/04/01 07:31:31;;;;;;;25.27;9.80;;;9.80;99.90;;;;;;5000473;28;20495;-62
2023/04/01 07:34:05;;;;;;;10.00;4.67;;;9.90;99.90;;;;;;5011407;28;20473;-62
2023/04/01 07:36:39;;;;;;;13.50;5.73;;;9.90;99.90;;;;;;4977312;28;20493;-62
2023/04/01 07:39:16;;;;;;;7.93;3.30;;;10.00;99.90;;;;;;4998657;28;20543;-62
2023/04/01 07:41:52;;;;;;;15.17;6.70;;;10.00;99.90;;;;;;4984740;28;20488;-62
2023/04/01 07:44:29;;;;;;;23.53;9.20;;;10.00;99.90;;;;;;4991860;28;20515;-62
2023/04/01 07:47:10;;;;;;;17.07;6.60;;;10.20;99.90;;;;;;4982297;28;20487;-62
2023/04/01 07:49:43;;;;;;;7.13;3.30;;;10.10;99.90;;;;;;5009730;28;20472;-62
2023/04/01 07:52:21;;;;;;;8.70;3.87;;;10.10;99.90;;;;;;4982745;28;20492;-62
2023/04/01 07:54:54;;;;;;;11.67;5.00;;;10.20;99.90;;;;;;4966759;28;20754;-62
2023/04/01 07:57:25;;;;;;;23.40;7.50;;;10.20;99.90;;;;;;5012625;28;20477;-62
2023/04/01 08:00:00;;;;;;;10.97;5.23;;;10.10;99.90;;;;;;4977657;28;20477;-61
2023/04/01 08:02:40;;;;;;;13.47;5.50;;;10.20;99.90;;;;;;4987044;28;20503;-62
2023/04/01 08:05:18;;;;;;;8.67;2.90;;;10.10;99.90;;;;;;4983756;28;20480;-62
2023/04/01 08:07:52;;;;;;;12.63;3.47;;;10.10;99.90;;;;;;5011967;28;20491;-62
2023/04/01 08:10:22;;;;;;;25.27;10.33;;;10.10;99.90;;;;;;5017958;28;20486;-62
2023/04/01 08:12:58;;;;;;;15.33;6.37;;;10.20;99.90;;;;;;5013726;28;21132;-62
2023/04/01 08:15:29;;;;;;;20.43;7.90;;;10.20;99.90;;;;;;5012163;28;20484;-62
2023/04/01 08:18:10;;;;;;;14.50;6.23;;;10.20;99.90;;;;;;5010332;28;20675;-62
2023/04/01 08:20:42;;;;;;;12.90;4.43;;;10.10;99.90;;;;;;5004547;28;20472;-61
2023/04/01 08:23:14;;;;;;;7.83;3.67;;;10.20;99.90;;;;;;5013279;28;20491;-61
2023/04/01 08:25:46;;;;;;;12.20;3.73;;;10.40;99.90;;;;;;5021257;28;20515;-62
2023/04/01 08:28:18;;;;;;;12.63;5.20;;;10.40;99.90;;;;;;5014713;28;20481;-62
2023/04/01 08:30:51;;;;;;;12.23;5.20;;;10.40;99.90;;;;;;5001697;28;20838;-61
2023/04/01 08:33:22;;;;;;;17.93;7.93;;;10.40;99.90;;;;;;5024175;28;20501;-61
2023/04/01 08:35:53;;;;;;;13.50;6.20;;;10.40;99.90;;;;;;5003311;28;21011;-61
2023/04/01 08:38:28;;;;;;;16.77;6.53;;;10.50;99.90;;;;;;5008100;28;20488;-61
2023/04/01 08:41:10;;;;;;;11.40;5.43;;;10.50;99.90;;;;;;4993024;28;20702;-62
2023/04/01 08:44:00;;;;;;;7.43;3.70;;;10.50;99.90;;;;;;4980133;28;20838;-62
2023/04/01 08:46:58;;;;;;;15.80;7.00;;;10.50;99.90;;;;;;4989470;28;20488;-62
2023/04/01 08:49:49;;;;;;;16.00;6.60;;;10.40;99.90;;;;;;4947855;28;20485;-62
2023/04/01 08:52:28;;;;;;;14.20;6.17;;;10.50;99.90;;;;;;5013262;28;21021;-62
2023/04/01 08:55:22;;;;;;;15.30;5.20;;;10.60;99.90;;;;;;4990660;28;20485;-62
2023/04/01 08:58:03;;;;;;;12.80;5.40;;;10.60;99.90;;;;;;5003074;28;20503;-62
2023/04/01 09:00:34;;;;;;;5.23;2.90;;;10.50;99.90;;;;;;5007543;28;20509;-62
2023/04/01 09:03:30;;;;;;;8.10;3.97;;;10.60;99.90;;;;;;5015041;28;20476;-61
2023/04/01 09:06:29;;;;;;;12.80;5.37;;;10.50;99.90;;;;;;4989059;28;20482;-62
2023/04/01 09:09:20;;;;;;;9.87;5.03;;;10.40;99.90;;;;;;5001838;28;20507;-62
2023/04/01 09:12:15;;;;;;;27.83;5.77;;;10.50;99.90;;;;;;4988403;28;20480;-61
2023/04/01 09:15:02;;;;;;;16.30;5.00;;;10.50;99.90;;;;;;4998229;28;20559;-61
2023/04/01 09:18:14;;;;;;;10.57;4.80;;;10.70;99.90;;;;;;5006988;28;20511;-62
2023/04/01 09:21:03;;;;;;;12.53;5.50;;;10.70;99.90;;;;;;4950255;28;20483;-62
2023/04/01 09:23:56;;;;;;;9.10;3.90;;;10.70;99.90;;;;;;4994818;28;20515;-62
2023/04/01 09:26:40;;;;;;;28.33;9.17;;;10.60;99.90;;;;;;5006751;28;20499;-62
2023/04/01 09:29:20;;;;;;;7.33;3.20;;;10.70;99.90;;;;;;5014048;28;20471;-62
2023/04/01 09:32:11;;;;;;;12.83;3.70;;;10.80;99.90;;;;;;4989624;28;20514;-61
2023/04/01 09:34:54;;;;;;;10.93;4.43;;;10.80;99.90;;;;;;5019652;28;20478;-62
2023/04/01 09:37:32;;;;;;;26.53;9.93;;;10.80;99.90;;;;;;5007354;28;20811;-62
2023/04/01 09:40:17;;;;;;;10.43;4.00;;;10.80;99.90;;;;;;4997262;28;20499;-62
2023/04/01 09:42:49;;;;;;;14.67;5.97;;;10.80;99.90;;;;;;5007312;28;20491;-62
2023/04/01 09:45:31;;;;;;;18.60;5.37;;;10.90;99.90;;;;;;5004577;28;20976;-62
2023/04/01 09:48:09;;;;;;;12.17;4.10;;;10.90;99.90;;;;;;4997263;28;20492;-62
2023/04/01 09:50:48;;;;;;;7.10;3.17;;;10.80;99.90;;;;;;5007114;28;20488;-61
2023/04/01 09:53:29;;;;;;;18.23;6.43;;;10.90;99.90;;;;;;4997645;28;21054;-62
2023/04/01 09:56:32;;;;;;;14.80;4.50;;;11.00;99.90;;;;;;5004961;28;20494;-62
2023/04/01 09:59:26;;;;;;;17.37;4.63;;;11.00;99.90;;;;;;4996598;28;20891;-62
2023/04/01 10:02:29;;;;;;;12.30;4.70;;;11.00;99.90;;;;;;5015322;28;20526;-62
2023/04/01 10:05:43;;;;;;;11.17;4.43;;;11.00;99.90;;;;;;4996113;28;20721;-62
2023/04/01 10:08:46;;;;;;;15.43;5.77;;;11.00;99.90;;;;;;5009220;28;20453;-62
2023/04/01 10:11:36;;;;;;;21.47;6.70;;;10.90;99.90;;;;;;4984971;28;20582;-62
2023/04/01 10:14:32;;;;;;;11.30;4.57;;;11.00;99.90;;;;;;4992657;28;20468;-61
2023/04/01 10:17:30;;;;;;;12.63;3.90;;;11.10;99.90;;;;;;5012258;28;20484;-62
2023/04/01 10:20:18;;;;;;;9.03;4.17;;;11.10;99.90;;;;;;5016160;28;20480;-61
2023/04/01 10:23:09;;;;;;;13.70;5.37;;;11.10;99.90;;;;;;5012810;28;20551;-62
2023/04/01 10:26:10;;;;;;;8.23;3.60;;;11.10;99.90;;;;;;5012241;28;20493;-63
2023/04/01 10:29:14;;;;;;;12.30;4.93;;;11.10;99.90;;;;;;5005987;28;20492;-63
2023/04/01 10:32:27;;;;;;;12.63;3.50;;;11.10;99.90;;;;;;5002983;28;20484;-62
2023/04/01 10:35:15;;;;;;;10.80;4.80;;;11.10;99.90;;;;;;4936540;28;20490;-63
2023/04/01 10:38:20;;;;;;;12.23;3.67;;;11.10;99.90;;;;;;4948590;28;20498;-63
2023/04/01 10:41:28;;;;;;;16.87;6.60;;;11.10;99.90;;;;;;4950162;28;20473;-62
2023/04/01 10:44:26;;;;;;;14.33;5.27;;;11.20;99.90;;;;;;4980445;28;20726;-62
2023/04/01 10:47:20;;;;;;;17.10;6.67;;;11.30;99.90;;;;;;4982579;28;20872;-62
2023/04/01 10:50:14;;;;;;;9.83;4.00;;;11.20;99.90;;;;;;4985577;28;20474;-62
2023/04/01 10:53:20;;;;;;;10.80;4.17;;;11.20;99.90;;;;;;4973430;28;20482;-62
2023/04/01 10:56:09;;;;;;;14.17;4.33;;;11.10;99.90;;;;;;4979284;28;20470;-61
2023/04/01 10:59:03;;;;;;;9.87;4.33;;;11.20;99.90;;;;;;5006978;28;20473;-62
2023/04/01 11:01:58;;;;;;;13.67;5.77;;;11.10;99.90;;;;;;5011741;28;20492;-62
2023/04/01 11:05:07;;;;;;;20.30;8.10;;;11.10;99.90;;;;;;4983810;28;20499;-62
2023/04/01 11:08:05;;;;;;;8.93;3.90;;;11.10;99.90;;;;;;4984852;28;20492;-61
2023/04/01 11:11:00;;;;;;;11.87;3.40;;;11.10;99.90;;;;;;5015547;28;20984;-62
2023/04/01 11:14:13;;;;;;;23.07;6.30;;;11.10;99.90;;;;;;4983825;28;20835;-62
2023/04/01 11:17:22;;;;;;;22.13;5.30;;;11.10;99.90;;;;;;5003216;28;20489;-62
2023/04/01 11:20:15;;;;;;;9.97;4.37;;;11.20;99.90;;;;;;4952878;28;20494;-61
2023/04/01 11:22:57;;;;;;;13.80;5.30;;;11.10;99.90;;;;;;4995045;28;20555;-61
2023/04/01 11:26:00;;;;;;;21.57;8.10;;;11.20;99.90;;;;;;4998887;28;20515;-62
2023/04/01 11:28:55;;;;;;;31.27;7.93;;;11.30;99.90;;;;;;4986400;28;20904;-62
2023/04/01 11:31:44;;;;;;;31.37;8.47;;;11.30;99.90;;;;;;4981747;28;20480;-62
2023/04/01 11:34:24;;;;;;;13.07;4.67;;;11.20;99.90;;;;;;4994618;28;20492;-62
2023/04/01 11:37:02;;;;;;;11.90;4.63;;;11.20;99.90;;;;;;4987475;28;20481;-62
2023/04/01 11:39:37;;;;;;;16.80;5.60;;;11.20;99.90;;;;;;4987136;28;20507;-61
2023/04/01 11:42:15;;;;;;;19.47;5.73;;;11.10;99.90;;;;;;4993587;28;20481;-62
2023/04/01 11:44:52;;;;;;;13.47;5.00;;;11.20;99.90;;;;;;4969774;28;20607;-63
2023/04/01 11:47:40;;;;;;;32.40;9.13;;;11.20;99.90;;;;;;5003762;28;20484;-63
2023/04/01 11:50:22;;;;;;;12.10;4.10;;;11.30;99.90;;;;;;4995362;28;20477;-61
2023/04/01 11:53:22;;;;;;;17.87;6.23;;;11.30;99.90;;;;;;5008055;28;20526;-62
2023/04/01 11:55:59;;;;;;;16.37;6.13;;;11.40;99.90;;;;;;5013598;28;20481;-62
2023/04/01 11:58:50;;;;;;;21.30;7.03;;;11.50;99.90;;;;;;5008286;28;20529;-62
2023/04/01 12:01:34;;;;;;;26.17;8.87;;;11.60;99.90;;;;;;5009092;28;20495;-64
2023/04/01 12:04:33;;;;;;;20.77;4.73;;;11.60;99.90;;;;;;4993932;28;20625;-62
2023/04/01 12:07:09;;;;;;;10.50;3.70;;;11.60;99.90;;;;;;4987667;28;20849;-62
2023/04/01 12:09:45;;;;;;;20.60;6.03;;;11.60;99.90;;;;;;5010991;28;20595;-62
2023/04/01 12:12:24;;;;;;;14.97;4.67;;;11.60;99.90;;;;;;4986406;28;20860;-62
2023/04/01 12:15:01;;;;;;;15.93;5.47;;;12.10;99.90;;;;;;5003882;28;20484;-62
2023/04/01 12:17:34;;;;;;;21.90;6.80;;;11.50;99.90;;;;;;4991536;28;20481;-62
2023/04/01 12:20:22;;;;;;;12.47;4.87;;;11.50;99.90;;;;;;5001003;28;20485;-62
2023/04/01 12:22:58;;;;;;;17.50;6.23;;;11.30;99.90;;;;;;4972068;28;20489;-63
2023/04/01 12:25:54;;;;;;;26.47;8.13;;;11.40;99.90;;;;;;4975540;28;20486;-63
2023/04/01 12:28:30;;;;;;;23.37;8.17;;;11.30;99.90;;;;;;5008924;28;20566;-63
2023/04/01 12:31:10;;;;;;;15.60;5.70;;;11.30;99.90;;;;;;5011849;28;20473;-62
2023/04/01 12:33:53;;;;;;;14.80;5.73;;;11.40;99.90;;;;;;5015098;28;20478;-62
2023/04/01 12:36:38;;;;;;;27.90;9.30;;;11.40;99.90;;;;;;5010660;28;20488;-62
2023/04/01 12:39:27;;;;;;;51.40;15.67;;;11.50;99.90;;;;;;4996634;28;20571;-62
2023/04/01 12:42:03;;;;;;;19.37;5.87;;;11.30;99.90;;;;;;4989005;28;21225;-63
2023/04/01 12:45:05;;;;;;;26.27;8.63;;;11.40;99.90;;;;;;5016492;28;20530;-62
2023/04/01 12:47:58;;;;;;;18.60;6.67;;;11.30;99.90;;;;;;4947330;28;20854;-62
2023/04/01 12:50:32;;;;;;;30.47;9.70;;;11.30;99.90;;;;;;5020962;28;20530;-62
2023/04/01 12:53:19;;;;;;;17.33;5.77;;;11.30;99.90;;;;;;5023989;28;20479;-62
2023/04/01 12:55:50;;;;;;;23.83;8.10;;;11.30;99.90;;;;;;5027892;28;20475;-62
2023/04/01 12:58:45;;;;;;;31.67;10.07;;;11.40;99.90;;;;;;5002585;28;20486;-63
2023/04/01 13:01:30;;;;;;;28.40;8.93;;;11.30;99.90;;;;;;4998575;28;20476;-62
2023/04/01 13:04:26;;;;;;;19.23;5.37;;;11.20;99.90;;;;;;5006012;28;20865;-63
2023/04/01 13:07:05;;;;;;;31.30;9.90;;;11.20;99.90;;;;;;4982266;28;21118;-62
2023/04/01 13:09:46;;;;;;;15.33;5.13;;;11.20;99.90;;;;;;4997737;28;20860;-62
2023/04/01 13:12:30;;;;;;;22.23;8.30;;;11.30;99.90;;;;;;4988016;28;20473;-62
2023/04/01 13:15:11;;;;;;;18.13;6.37;;;11.20;99.90;;;;;;4978655;28;20613;-62
2023/04/01 13:17:46;;;;;;;24.93;7.60;;;11.20;99.90;;;;;;5025600;28;20506;-62
2023/04/01 13:20:24;;;;;;;27.93;8.97;;;11.30;99.90;;;;;;5006916;28;20504;-63
2023/04/01 13:23:05;;;;;;;26.73;7.60;;;11.30;99.90;;;;;;4998308;28;20500;-63
2023/04/01 13:25:40;;;;;;;23.43;7.20;;;11.40;99.90;;;;;;5000702;28;20485;-62
2023/04/01 13:28:13;;;;;;;12.90;3.47;;;11.30;99.90;;;;;;4990261;28;20487;-62
2023/04/01 13:30:48;;;;;;;14.00;5.47;;;11.40;99.90;;;;;;5003015;28;20698;-62